sensor_id;sensor_type;location;lat;lon;timestamp;P1;durP1;ratioP1;P2;durP2;ratioP2
3791;SDS011;1911;53.768;11.474;2023-05-07T00:01:13;15.47;;;11.23;;
3791;SDS011;1911;53.768;11.474;2023-05-07T00:03:39;16.30;;;9.83;;
3791;SDS011;1911;53.768;11.474;2023-05-07T00:06:04;14.20;;;11.13;;
3791;SDS011;1911;53.768;11.474;2023-05-07T00:08:30;17.10;;;11.77;;
3791;SDS011;1911;53.768;11.474;2023-05-07T00:10:56;13.50;;;10.90;;
3791;SDS011;1911;53.768;11.474;2023-05-07T00:13:22;16.90;;;11.13;;
3791;SDS011;1911;53.768;11.474;2023-05-07T00:15:47;13.43;;;10.23;;
3791;SDS011;1911;53.768;11.474;2023-05-07T00:18:13;13.20;;;9.90;;
3791;SDS011;1911;53.768;11.474;2023-05-07T00:20:38;13.33;;;9.87;;
3791;SDS011;1911;53.768;11.474;2023-05-07T00:23:04;15.60;;;9.50;;
3791;SDS011;1911;53.768;11.474;2023-05-07T00:25:30;14.10;;;10.27;;
3791;SDS011;1911;53.768;11.474;2023-05-07T00:27:55;15.13;;;9.60;;
3791;SDS011;1911;53.768;11.474;2023-05-07T00:30:22;14.13;;;10.80;;
3791;SDS011;1911;53.768;11.474;2023-05-07T00:32:48;14.03;;;9.77;;
3791;SDS011;1911;53.768;11.474;2023-05-07T00:35:14;14.47;;;9.77;;
3791;SDS011;1911;53.768;11.474;2023-05-07T00:37:39;17.40;;;10.60;;
3791;SDS011;1911;53.768;11.474;2023-05-07T00:40:05;12.63;;;10.50;;
3791;SDS011;1911;53.768;11.474;2023-05-07T00:42:32;15.47;;;10.67;;
3791;SDS011;1911;53.768;11.474;2023-05-07T00:44:58;13.30;;;10.17;;
3791;SDS011;1911;53.768;11.474;2023-05-07T00:47:24;13.97;;;10.30;;
3791;SDS011;1911;53.768;11.474;2023-05-07T00:49:50;12.63;;;9.70;;
3791;SDS011;1911;53.768;11.474;2023-05-07T00:52:17;13.80;;;10.70;;
3791;SDS011;1911;53.768;11.474;2023-05-07T00:54:44;15.40;;;10.87;;
3791;SDS011;1911;53.768;11.474;2023-05-07T00:57:10;10.87;;;8.77;;
3791;SDS011;1911;53.768;11.474;2023-05-07T00:59:36;13.63;;;9.67;;
3791;SDS011;1911;53.768;11.474;2023-05-07T01:02:04;13.53;;;9.80;;
3791;SDS011;1911;53.768;11.474;2023-05-07T01:04:32;14.20;;;10.37;;
3791;SDS011;1911;53.768;11.474;2023-05-07T01:06:58;13.17;;;9.77;;
3791;SDS011;1911;53.768;11.474;2023-05-07T01:09:25;11.13;;;9.60;;
3791;SDS011;1911;53.768;11.474;2023-05-07T01:11:52;13.50;;;8.90;;
3791;SDS011;1911;53.768;11.474;2023-05-07T01:14:20;14.90;;;11.23;;
3791;SDS011;1911;53.768;11.474;2023-05-07T01:16:46;15.40;;;10.13;;
3791;SDS011;1911;53.768;11.474;2023-05-07T01:19:12;13.80;;;9.60;;
3791;SDS011;1911;53.768;11.474;2023-05-07T01:21:47;12.43;;;10.10;;
3791;SDS011;1911;53.768;11.474;2023-05-07T01:24:14;14.00;;;9.30;;
3791;SDS011;1911;53.768;11.474;2023-05-07T01:26:40;12.20;;;8.93;;
3791;SDS011;1911;53.768;11.474;2023-05-07T01:29:07;14.23;;;10.23;;
3791;SDS011;1911;53.768;11.474;2023-05-07T01:31:32;17.57;;;10.63;;
3791;SDS011;1911;53.768;11.474;2023-05-07T01:33:59;13.73;;;9.13;;
3791;SDS011;1911;53.768;11.474;2023-05-07T01:36:27;12.80;;;10.03;;
3791;SDS011;1911;53.768;11.474;2023-05-07T01:38:55;16.10;;;10.67;;
3791;SDS011;1911;53.768;11.474;2023-05-07T01:41:22;13.70;;;10.13;;
3791;SDS011;1911;53.768;11.474;2023-05-07T01:43:48;13.17;;;9.80;;
3791;SDS011;1911;53.768;11.474;2023-05-07T01:46:15;14.43;;;10.10;;
3791;SDS011;1911;53.768;11.474;2023-05-07T01:48:42;20.27;;;11.03;;
3791;SDS011;1911;53.768;11.474;2023-05-07T01:51:10;12.10;;;9.70;;
3791;SDS011;1911;53.768;11.474;2023-05-07T01:53:36;13.50;;;9.67;;
3791;SDS011;1911;53.768;11.474;2023-05-07T01:56:02;15.00;;;11.10;;
3791;SDS011;1911;53.768;11.474;2023-05-07T01:58:28;13.90;;;10.60;;
3791;SDS011;1911;53.768;11.474;2023-05-07T02:00:54;19.23;;;10.40;;
3791;SDS011;1911;53.768;11.474;2023-05-07T02:03:19;15.60;;;10.70;;
3791;SDS011;1911;53.768;11.474;2023-05-07T02:05:45;16.67;;;11.20;;
3791;SDS011;1911;53.768;11.474;2023-05-07T02:08:11;12.13;;;9.30;;
3791;SDS011;1911;53.768;11.474;2023-05-07T02:10:36;13.87;;;9.83;;
3791;SDS011;1911;53.768;11.474;2023-05-07T02:13:02;13.73;;;10.23;;
3791;SDS011;1911;53.768;11.474;2023-05-07T02:15:28;14.83;;;10.40;;
3791;SDS011;1911;53.768;11.474;2023-05-07T02:18:03;11.87;;;9.90;;
3791;SDS011;1911;53.768;11.474;2023-05-07T02:20:31;12.47;;;9.90;;
3791;SDS011;1911;53.768;11.474;2023-05-07T02:22:56;15.10;;;9.10;;
3791;SDS011;1911;53.768;11.474;2023-05-07T02:25:22;14.30;;;9.57;;
3791;SDS011;1911;53.768;11.474;2023-05-07T02:27:48;12.30;;;10.20;;
3791;SDS011;1911;53.768;11.474;2023-05-07T02:30:13;13.93;;;9.20;;
3791;SDS011;1911;53.768;11.474;2023-05-07T02:32:39;13.87;;;9.67;;
3791;SDS011;1911;53.768;11.474;2023-05-07T02:35:05;12.93;;;9.57;;
3791;SDS011;1911;53.768;11.474;2023-05-07T02:37:31;14.00;;;9.90;;
3791;SDS011;1911;53.768;11.474;2023-05-07T02:39:57;13.13;;;9.10;;
3791;SDS011;1911;53.768;11.474;2023-05-07T02:42:22;13.60;;;9.20;;
3791;SDS011;1911;53.768;11.474;2023-05-07T02:44:48;12.80;;;9.13;;
3791;SDS011;1911;53.768;11.474;2023-05-07T02:47:14;14.00;;;8.70;;
3791;SDS011;1911;53.768;11.474;2023-05-07T02:49:40;13.67;;;9.13;;
3791;SDS011;1911;53.768;11.474;2023-05-07T02:52:06;14.53;;;9.80;;
3791;SDS011;1911;53.768;11.474;2023-05-07T02:54:32;12.77;;;9.40;;
3791;SDS011;1911;53.768;11.474;2023-05-07T02:56:57;12.83;;;9.83;;
3791;SDS011;1911;53.768;11.474;2023-05-07T02:59:23;13.90;;;9.33;;
3791;SDS011;1911;53.768;11.474;2023-05-07T03:01:50;14.60;;;9.20;;
3791;SDS011;1911;53.768;11.474;2023-05-07T03:04:15;14.13;;;9.50;;
3791;SDS011;1911;53.768;11.474;2023-05-07T03:06:41;12.13;;;9.17;;
3791;SDS011;1911;53.768;11.474;2023-05-07T03:09:07;14.17;;;10.20;;
3791;SDS011;1911;53.768;11.474;2023-05-07T03:11:32;14.00;;;9.10;;
3791;SDS011;1911;53.768;11.474;2023-05-07T03:13:58;13.37;;;8.63;;
3791;SDS011;1911;53.768;11.474;2023-05-07T03:16:23;14.33;;;9.33;;
3791;SDS011;1911;53.768;11.474;2023-05-07T03:18:49;13.50;;;10.27;;
3791;SDS011;1911;53.768;11.474;2023-05-07T03:21:15;12.17;;;9.80;;
3791;SDS011;1911;53.768;11.474;2023-05-07T03:23:40;12.67;;;9.50;;
3791;SDS011;1911;53.768;11.474;2023-05-07T03:26:06;15.60;;;9.90;;
3791;SDS011;1911;53.768;11.474;2023-05-07T03:28:31;13.20;;;8.83;;
3791;SDS011;1911;53.768;11.474;2023-05-07T03:30:57;16.90;;;10.23;;
3791;SDS011;1911;53.768;11.474;2023-05-07T03:33:22;15.20;;;8.80;;
3791;SDS011;1911;53.768;11.474;2023-05-07T03:35:48;12.87;;;9.37;;
3791;SDS011;1911;53.768;11.474;2023-05-07T03:38:14;12.70;;;8.63;;
3791;SDS011;1911;53.768;11.474;2023-05-07T03:40:39;13.20;;;8.93;;
3791;SDS011;1911;53.768;11.474;2023-05-07T03:43:05;16.23;;;9.83;;
3791;SDS011;1911;53.768;11.474;2023-05-07T03:45:31;12.00;;;8.53;;
3791;SDS011;1911;53.768;11.474;2023-05-07T03:47:56;13.17;;;8.77;;
3791;SDS011;1911;53.768;11.474;2023-05-07T03:50:22;15.30;;;10.07;;
3791;SDS011;1911;53.768;11.474;2023-05-07T03:52:47;11.90;;;9.80;;
3791;SDS011;1911;53.768;11.474;2023-05-07T03:55:13;16.67;;;10.00;;
3791;SDS011;1911;53.768;11.474;2023-05-07T03:57:38;17.70;;;9.27;;
3791;SDS011;1911;53.768;11.474;2023-05-07T04:00:04;13.67;;;9.83;;
3791;SDS011;1911;53.768;11.474;2023-05-07T04:02:32;13.57;;;9.17;;
3791;SDS011;1911;53.768;11.474;2023-05-07T04:04:58;15.10;;;8.37;;
3791;SDS011;1911;53.768;11.474;2023-05-07T04:07:23;13.80;;;8.80;;
3791;SDS011;1911;53.768;11.474;2023-05-07T04:09:49;15.80;;;9.50;;
3791;SDS011;1911;53.768;11.474;2023-05-07T04:12:14;12.50;;;9.13;;
3791;SDS011;1911;53.768;11.474;2023-05-07T04:14:40;14.23;;;8.57;;
3791;SDS011;1911;53.768;11.474;2023-05-07T04:17:06;10.90;;;8.63;;
3791;SDS011;1911;53.768;11.474;2023-05-07T04:19:33;10.43;;;7.83;;
3791;SDS011;1911;53.768;11.474;2023-05-07T04:21:58;11.27;;;8.07;;
3791;SDS011;1911;53.768;11.474;2023-05-07T04:24:24;11.00;;;7.27;;
3791;SDS011;1911;53.768;11.474;2023-05-07T04:26:49;9.30;;;7.70;;
3791;SDS011;1911;53.768;11.474;2023-05-07T04:29:16;13.17;;;8.40;;
3791;SDS011;1911;53.768;11.474;2023-05-07T04:31:42;13.67;;;8.73;;
3791;SDS011;1911;53.768;11.474;2023-05-07T04:34:09;14.20;;;9.73;;
3791;SDS011;1911;53.768;11.474;2023-05-07T04:36:36;13.23;;;7.63;;
3791;SDS011;1911;53.768;11.474;2023-05-07T04:39:03;11.43;;;7.63;;
3791;SDS011;1911;53.768;11.474;2023-05-07T04:41:29;13.60;;;8.60;;
3791;SDS011;1911;53.768;11.474;2023-05-07T04:43:55;14.50;;;9.37;;
3791;SDS011;1911;53.768;11.474;2023-05-07T04:46:21;13.77;;;8.70;;
3791;SDS011;1911;53.768;11.474;2023-05-07T04:48:48;11.93;;;9.93;;
3791;SDS011;1911;53.768;11.474;2023-05-07T04:51:14;12.50;;;8.80;;
3791;SDS011;1911;53.768;11.474;2023-05-07T04:53:40;16.30;;;10.77;;
3791;SDS011;1911;53.768;11.474;2023-05-07T04:56:05;10.40;;;8.67;;
3791;SDS011;1911;53.768;11.474;2023-05-07T04:58:31;13.80;;;10.10;;
3791;SDS011;1911;53.768;11.474;2023-05-07T05:00:57;13.67;;;8.90;;
3791;SDS011;1911;53.768;11.474;2023-05-07T05:03:23;15.67;;;9.70;;
3791;SDS011;1911;53.768;11.474;2023-05-07T05:05:49;14.47;;;8.97;;
3791;SDS011;1911;53.768;11.474;2023-05-07T05:08:16;11.67;;;8.17;;
3791;SDS011;1911;53.768;11.474;2023-05-07T05:10:42;11.80;;;8.60;;
3791;SDS011;1911;53.768;11.474;2023-05-07T05:13:08;13.73;;;9.10;;
3791;SDS011;1911;53.768;11.474;2023-05-07T05:15:34;12.43;;;7.70;;
3791;SDS011;1911;53.768;11.474;2023-05-07T05:18:00;13.00;;;8.07;;
3791;SDS011;1911;53.768;11.474;2023-05-07T05:20:26;10.10;;;8.23;;
3791;SDS011;1911;53.768;11.474;2023-05-07T05:22:51;11.23;;;8.13;;
3791;SDS011;1911;53.768;11.474;2023-05-07T05:25:17;11.83;;;7.40;;
3791;SDS011;1911;53.768;11.474;2023-05-07T05:27:42;12.10;;;7.50;;
3791;SDS011;1911;53.768;11.474;2023-05-07T05:30:08;8.77;;;7.53;;
3791;SDS011;1911;53.768;11.474;2023-05-07T05:32:34;10.93;;;7.63;;
3791;SDS011;1911;53.768;11.474;2023-05-07T05:35:00;9.03;;;6.60;;
3791;SDS011;1911;53.768;11.474;2023-05-07T05:37:28;10.57;;;8.07;;
3791;SDS011;1911;53.768;11.474;2023-05-07T05:39:56;8.80;;;6.30;;
3791;SDS011;1911;53.768;11.474;2023-05-07T05:42:24;8.00;;;6.83;;
3791;SDS011;1911;53.768;11.474;2023-05-07T05:44:49;9.50;;;7.20;;
3791;SDS011;1911;53.768;11.474;2023-05-07T05:47:15;11.80;;;6.77;;
3791;SDS011;1911;53.768;11.474;2023-05-07T05:49:41;10.30;;;6.50;;
3791;SDS011;1911;53.768;11.474;2023-05-07T05:52:08;8.03;;;7.03;;
3791;SDS011;1911;53.768;11.474;2023-05-07T05:54:34;8.60;;;6.37;;
3791;SDS011;1911;53.768;11.474;2023-05-07T05:56:59;8.87;;;7.13;;
3791;SDS011;1911;53.768;11.474;2023-05-07T05:59:25;8.10;;;6.77;;
3791;SDS011;1911;53.768;11.474;2023-05-07T06:01:50;11.10;;;7.83;;
3791;SDS011;1911;53.768;11.474;2023-05-07T06:04:16;11.90;;;7.20;;
3791;SDS011;1911;53.768;11.474;2023-05-07T06:06:42;9.60;;;7.67;;
3791;SDS011;1911;53.768;11.474;2023-05-07T06:09:07;9.73;;;7.53;;
3791;SDS011;1911;53.768;11.474;2023-05-07T06:11:33;8.00;;;6.43;;
3791;SDS011;1911;53.768;11.474;2023-05-07T06:13:58;9.60;;;7.63;;
3791;SDS011;1911;53.768;11.474;2023-05-07T06:16:24;9.17;;;5.93;;
3791;SDS011;1911;53.768;11.474;2023-05-07T06:18:50;8.03;;;5.63;;
3791;SDS011;1911;53.768;11.474;2023-05-07T06:21:16;8.00;;;5.30;;
3791;SDS011;1911;53.768;11.474;2023-05-07T06:23:41;7.90;;;5.43;;
3791;SDS011;1911;53.768;11.474;2023-05-07T06:26:09;9.10;;;6.00;;
3791;SDS011;1911;53.768;11.474;2023-05-07T06:28:42;9.83;;;6.00;;
3791;SDS011;1911;53.768;11.474;2023-05-07T06:36:54;6.23;;;5.40;;
3791;SDS011;1911;53.768;11.474;2023-05-07T06:39:32;8.40;;;5.80;;
3791;SDS011;1911;53.768;11.474;2023-05-07T06:42:01;8.23;;;5.40;;
3791;SDS011;1911;53.768;11.474;2023-05-07T07:08:40;5.40;;;4.40;;
3791;SDS011;1911;53.768;11.474;2023-05-07T07:11:06;5.20;;;4.67;;
3791;SDS011;1911;53.768;11.474;2023-05-07T07:13:31;12.00;;;5.23;;
3791;SDS011;1911;53.768;11.474;2023-05-07T07:15:57;5.73;;;4.57;;
3791;SDS011;1911;53.768;11.474;2023-05-07T07:18:23;6.00;;;5.10;;
3791;SDS011;1911;53.768;11.474;2023-05-07T07:20:48;5.47;;;4.83;;
3791;SDS011;1911;53.768;11.474;2023-05-07T07:23:14;5.90;;;4.83;;
3791;SDS011;1911;53.768;11.474;2023-05-07T07:25:40;6.27;;;5.67;;
3791;SDS011;1911;53.768;11.474;2023-05-07T07:28:05;5.63;;;4.73;;
3791;SDS011;1911;53.768;11.474;2023-05-07T07:30:31;7.07;;;5.30;;
3791;SDS011;1911;53.768;11.474;2023-05-07T07:32:57;6.37;;;5.10;;
3791;SDS011;1911;53.768;11.474;2023-05-07T07:35:27;7.00;;;5.00;;
3791;SDS011;1911;53.768;11.474;2023-05-07T07:37:53;8.20;;;4.50;;
3791;SDS011;1911;53.768;11.474;2023-05-07T07:40:19;6.03;;;5.43;;
3791;SDS011;1911;53.768;11.474;2023-05-07T07:42:45;6.77;;;5.47;;
3791;SDS011;1911;53.768;11.474;2023-05-07T07:45:11;13.17;;;5.07;;
3791;SDS011;1911;53.768;11.474;2023-05-07T07:47:37;6.90;;;5.17;;
3791;SDS011;1911;53.768;11.474;2023-05-07T07:50:03;5.03;;;4.53;;
3791;SDS011;1911;53.768;11.474;2023-05-07T07:52:29;4.90;;;4.37;;
3791;SDS011;1911;53.768;11.474;2023-05-07T07:54:54;5.77;;;4.70;;
3791;SDS011;1911;53.768;11.474;2023-05-07T07:57:20;6.30;;;4.13;;
3791;SDS011;1911;53.768;11.474;2023-05-07T07:59:46;3.97;;;3.47;;
3791;SDS011;1911;53.768;11.474;2023-05-07T08:02:11;6.03;;;3.20;;
3791;SDS011;1911;53.768;11.474;2023-05-07T08:04:37;4.80;;;3.17;;
3791;SDS011;1911;53.768;11.474;2023-05-07T08:07:05;3.93;;;3.33;;
3791;SDS011;1911;53.768;11.474;2023-05-07T08:09:31;4.33;;;3.10;;
3791;SDS011;1911;53.768;11.474;2023-05-07T08:11:56;4.23;;;3.10;;
3791;SDS011;1911;53.768;11.474;2023-05-07T08:14:22;3.33;;;2.97;;
3791;SDS011;1911;53.768;11.474;2023-05-07T08:16:48;5.30;;;2.70;;
3791;SDS011;1911;53.768;11.474;2023-05-07T08:19:13;5.80;;;2.93;;
3791;SDS011;1911;53.768;11.474;2023-05-07T08:21:39;3.87;;;3.10;;
3791;SDS011;1911;53.768;11.474;2023-05-07T08:24:05;3.23;;;2.30;;
3791;SDS011;1911;53.768;11.474;2023-05-07T08:26:31;3.10;;;2.30;;
3791;SDS011;1911;53.768;11.474;2023-05-07T08:28:57;3.10;;;2.60;;
3791;SDS011;1911;53.768;11.474;2023-05-07T08:31:22;3.43;;;2.73;;
3791;SDS011;1911;53.768;11.474;2023-05-07T08:33:48;3.33;;;3.00;;
3791;SDS011;1911;53.768;11.474;2023-05-07T08:36:14;3.60;;;2.50;;
3791;SDS011;1911;53.768;11.474;2023-05-07T08:38:40;5.23;;;2.70;;
3791;SDS011;1911;53.768;11.474;2023-05-07T08:41:09;2.90;;;2.60;;
3791;SDS011;1911;53.768;11.474;2023-05-07T08:43:35;3.73;;;2.37;;
3791;SDS011;1911;53.768;11.474;2023-05-07T08:46:02;3.47;;;2.10;;
3791;SDS011;1911;53.768;11.474;2023-05-07T08:48:30;3.30;;;2.60;;
3791;SDS011;1911;53.768;11.474;2023-05-07T08:50:58;2.40;;;2.03;;
3791;SDS011;1911;53.768;11.474;2023-05-07T08:53:24;3.70;;;2.23;;
3791;SDS011;1911;53.768;11.474;2023-05-07T08:55:50;2.87;;;2.27;;
3791;SDS011;1911;53.768;11.474;2023-05-07T08:58:17;2.40;;;1.93;;
3791;SDS011;1911;53.768;11.474;2023-05-07T09:00:42;3.70;;;2.33;;
3791;SDS011;1911;53.768;11.474;2023-05-07T09:03:08;2.50;;;2.00;;
3791;SDS011;1911;53.768;11.474;2023-05-07T09:05:37;4.00;;;2.63;;
3791;SDS011;1911;53.768;11.474;2023-05-07T09:08:03;3.50;;;1.97;;
3791;SDS011;1911;53.768;11.474;2023-05-07T09:10:29;3.43;;;2.33;;
3791;SDS011;1911;53.768;11.474;2023-05-07T09:12:54;3.60;;;2.23;;
3791;SDS011;1911;53.768;11.474;2023-05-07T09:15:20;3.10;;;2.23;;
3791;SDS011;1911;53.768;11.474;2023-05-07T09:17:46;2.60;;;2.37;;
3791;SDS011;1911;53.768;11.474;2023-05-07T09:20:11;2.50;;;1.70;;
3791;SDS011;1911;53.768;11.474;2023-05-07T09:22:37;2.10;;;1.63;;
3791;SDS011;1911;53.768;11.474;2023-05-07T09:25:03;3.50;;;2.50;;
3791;SDS011;1911;53.768;11.474;2023-05-07T09:27:31;2.57;;;2.20;;
3791;SDS011;1911;53.768;11.474;2023-05-07T09:29:56;2.77;;;2.43;;
3791;SDS011;1911;53.768;11.474;2023-05-07T09:32:22;3.40;;;2.10;;
3791;SDS011;1911;53.768;11.474;2023-05-07T09:34:47;3.23;;;2.43;;
3791;SDS011;1911;53.768;11.474;2023-05-07T09:37:13;3.83;;;2.20;;
3791;SDS011;1911;53.768;11.474;2023-05-07T09:39:42;3.27;;;2.30;;
3791;SDS011;1911;53.768;11.474;2023-05-07T09:42:12;2.60;;;2.17;;
3791;SDS011;1911;53.768;11.474;2023-05-07T09:44:40;2.77;;;2.00;;
3791;SDS011;1911;53.768;11.474;2023-05-07T09:47:07;4.07;;;2.30;;
3791;SDS011;1911;53.768;11.474;2023-05-07T09:49:36;3.33;;;2.00;;
3791;SDS011;1911;53.768;11.474;2023-05-07T09:52:05;3.13;;;2.13;;
3791;SDS011;1911;53.768;11.474;2023-05-07T09:54:33;2.50;;;2.00;;
3791;SDS011;1911;53.768;11.474;2023-05-07T09:57:02;2.53;;;1.93;;
3791;SDS011;1911;53.768;11.474;2023-05-07T09:59:29;3.50;;;2.70;;
3791;SDS011;1911;53.768;11.474;2023-05-07T10:01:57;3.90;;;2.40;;
3791;SDS011;1911;53.768;11.474;2023-05-07T10:04:26;4.20;;;1.77;;
3791;SDS011;1911;53.768;11.474;2023-05-07T10:06:52;3.50;;;2.40;;
3791;SDS011;1911;53.768;11.474;2023-05-07T10:09:18;2.73;;;2.43;;
3791;SDS011;1911;53.768;11.474;2023-05-07T10:11:45;2.63;;;2.07;;
3791;SDS011;1911;53.768;11.474;2023-05-07T10:14:11;2.90;;;1.90;;
3791;SDS011;1911;53.768;11.474;2023-05-07T10:16:37;3.40;;;1.93;;
3791;SDS011;1911;53.768;11.474;2023-05-07T10:19:03;4.10;;;2.10;;
3791;SDS011;1911;53.768;11.474;2023-05-07T10:21:29;3.80;;;2.10;;
3791;SDS011;1911;53.768;11.474;2023-05-07T10:23:58;4.50;;;2.57;;
3791;SDS011;1911;53.768;11.474;2023-05-07T10:26:28;3.60;;;2.20;;
3791;SDS011;1911;53.768;11.474;2023-05-07T10:28:58;3.63;;;2.13;;
3791;SDS011;1911;53.768;11.474;2023-05-07T10:34:23;2.73;;;2.13;;
3791;SDS011;1911;53.768;11.474;2023-05-07T10:36:52;3.13;;;1.87;;
3791;SDS011;1911;53.768;11.474;2023-05-07T10:39:20;3.03;;;2.00;;
3791;SDS011;1911;53.768;11.474;2023-05-07T10:41:46;3.33;;;2.50;;
3791;SDS011;1911;53.768;11.474;2023-05-07T10:44:24;2.07;;;1.80;;
3791;SDS011;1911;53.768;11.474;2023-05-07T10:47:03;2.13;;;1.70;;
3791;SDS011;1911;53.768;11.474;2023-05-07T10:50:20;3.23;;;2.20;;
3791;SDS011;1911;53.768;11.474;2023-05-07T10:52:21;3.40;;;2.20;;
3791;SDS011;1911;53.768;11.474;2023-05-07T10:57:42;2.20;;;1.80;;
3791;SDS011;1911;53.768;11.474;2023-05-07T11:03:04;2.10;;;1.60;;
3791;SDS011;1911;53.768;11.474;2023-05-07T11:05:32;2.63;;;2.07;;
3791;SDS011;1911;53.768;11.474;2023-05-07T11:07:59;3.13;;;2.03;;
3791;SDS011;1911;53.768;11.474;2023-05-07T11:13:15;3.47;;;2.13;;
3791;SDS011;1911;53.768;11.474;2023-05-07T11:15:42;2.87;;;1.50;;
3791;SDS011;1911;53.768;11.474;2023-05-07T11:18:13;2.60;;;1.97;;
3791;SDS011;1911;53.768;11.474;2023-05-07T11:26:10;3.50;;;1.70;;
3791;SDS011;1911;53.768;11.474;2023-05-07T11:28:42;3.20;;;1.80;;
3791;SDS011;1911;53.768;11.474;2023-05-07T11:31:08;3.20;;;2.43;;
3791;SDS011;1911;53.768;11.474;2023-05-07T11:33:35;3.23;;;1.83;;
3791;SDS011;1911;53.768;11.474;2023-05-07T11:36:03;4.10;;;1.90;;
3791;SDS011;1911;53.768;11.474;2023-05-07T11:38:35;2.30;;;1.90;;
3791;SDS011;1911;53.768;11.474;2023-05-07T11:41:02;3.97;;;2.40;;
3791;SDS011;1911;53.768;11.474;2023-05-07T11:43:30;2.23;;;1.87;;
3791;SDS011;1911;53.768;11.474;2023-05-07T11:46:04;3.13;;;1.90;;
3791;SDS011;1911;53.768;11.474;2023-05-07T11:48:34;6.83;;;2.10;;
3791;SDS011;1911;53.768;11.474;2023-05-07T11:51:00;3.20;;;2.00;;
3791;SDS011;1911;53.768;11.474;2023-05-07T11:53:27;3.87;;;2.00;;
3791;SDS011;1911;53.768;11.474;2023-05-07T11:56:00;4.60;;;2.33;;
3791;SDS011;1911;53.768;11.474;2023-05-07T11:58:30;2.33;;;1.90;;
3791;SDS011;1911;53.768;11.474;2023-05-07T12:00:56;3.27;;;2.10;;
3791;SDS011;1911;53.768;11.474;2023-05-07T12:03:22;2.13;;;1.60;;
3791;SDS011;1911;53.768;11.474;2023-05-07T12:05:47;3.23;;;2.03;;
3791;SDS011;1911;53.768;11.474;2023-05-07T12:08:14;3.30;;;1.90;;
3791;SDS011;1911;53.768;11.474;2023-05-07T12:10:41;4.50;;;1.90;;
3791;SDS011;1911;53.768;11.474;2023-05-07T12:15:52;2.80;;;1.70;;
3791;SDS011;1911;53.768;11.474;2023-05-07T12:18:18;3.20;;;1.87;;
3791;SDS011;1911;53.768;11.474;2023-05-07T12:20:45;2.07;;;1.47;;
3791;SDS011;1911;53.768;11.474;2023-05-07T12:23:11;5.13;;;2.20;;
3791;SDS011;1911;53.768;11.474;2023-05-07T12:25:41;5.00;;;2.10;;
3791;SDS011;1911;53.768;11.474;2023-05-07T12:28:15;3.40;;;2.27;;
3791;SDS011;1911;53.768;11.474;2023-05-07T12:30:42;4.83;;;1.90;;
3791;SDS011;1911;53.768;11.474;2023-05-07T12:33:09;5.20;;;2.10;;
3791;SDS011;1911;53.768;11.474;2023-05-07T12:35:39;4.97;;;2.07;;
3791;SDS011;1911;53.768;11.474;2023-05-07T12:38:09;5.50;;;2.30;;
3791;SDS011;1911;53.768;11.474;2023-05-07T12:40:37;3.80;;;2.63;;
3791;SDS011;1911;53.768;11.474;2023-05-07T12:43:04;3.80;;;2.40;;
3791;SDS011;1911;53.768;11.474;2023-05-07T12:45:29;4.00;;;2.40;;
3791;SDS011;1911;53.768;11.474;2023-05-07T12:47:55;3.70;;;2.30;;
3791;SDS011;1911;53.768;11.474;2023-05-07T12:50:25;5.30;;;2.07;;
3791;SDS011;1911;53.768;11.474;2023-05-07T12:52:55;4.60;;;2.20;;
3791;SDS011;1911;53.768;11.474;2023-05-07T12:55:21;3.37;;;2.40;;
3791;SDS011;1911;53.768;11.474;2023-05-07T12:57:49;3.73;;;2.50;;
3791;SDS011;1911;53.768;11.474;2023-05-07T13:00:16;2.27;;;2.00;;
3791;SDS011;1911;53.768;11.474;2023-05-07T13:02:42;5.30;;;2.43;;
3791;SDS011;1911;53.768;11.474;2023-05-07T13:05:11;3.10;;;2.30;;
3791;SDS011;1911;53.768;11.474;2023-05-07T13:07:37;2.53;;;2.10;;
3791;SDS011;1911;53.768;11.474;2023-05-07T13:10:03;3.20;;;2.20;;
3791;SDS011;1911;53.768;11.474;2023-05-07T13:12:29;6.60;;;2.60;;
3791;SDS011;1911;53.768;11.474;2023-05-07T13:14:55;2.83;;;2.10;;
3791;SDS011;1911;53.768;11.474;2023-05-07T13:17:20;2.40;;;2.10;;
3791;SDS011;1911;53.768;11.474;2023-05-07T13:19:46;5.03;;;2.10;;
3791;SDS011;1911;53.768;11.474;2023-05-07T13:22:12;4.27;;;1.93;;
3791;SDS011;1911;53.768;11.474;2023-05-07T13:24:37;4.20;;;2.30;;
3791;SDS011;1911;53.768;11.474;2023-05-07T13:27:03;3.07;;;2.13;;
3791;SDS011;1911;53.768;11.474;2023-05-07T13:29:28;3.87;;;2.37;;
3791;SDS011;1911;53.768;11.474;2023-05-07T13:31:58;4.20;;;2.10;;
3791;SDS011;1911;53.768;11.474;2023-05-07T13:34:24;4.30;;;2.40;;
3791;SDS011;1911;53.768;11.474;2023-05-07T13:36:50;3.70;;;2.30;;
3791;SDS011;1911;53.768;11.474;2023-05-07T13:39:16;3.57;;;1.93;;
3791;SDS011;1911;53.768;11.474;2023-05-07T13:41:41;6.20;;;2.33;;
3791;SDS011;1911;53.768;11.474;2023-05-07T13:44:07;3.80;;;2.57;;
3791;SDS011;1911;53.768;11.474;2023-05-07T13:46:33;3.03;;;2.03;;
3791;SDS011;1911;53.768;11.474;2023-05-07T13:48:58;3.33;;;2.73;;
3791;SDS011;1911;53.768;11.474;2023-05-07T13:51:24;3.80;;;2.20;;
3791;SDS011;1911;53.768;11.474;2023-05-07T13:53:49;4.37;;;2.37;;
3791;SDS011;1911;53.768;11.474;2023-05-07T13:56:15;4.90;;;2.23;;
3791;SDS011;1911;53.768;11.474;2023-05-07T13:58:41;2.80;;;2.50;;
3791;SDS011;1911;53.768;11.474;2023-05-07T14:01:06;4.77;;;2.80;;
3791;SDS011;1911;53.768;11.474;2023-05-07T14:03:32;3.80;;;2.33;;
3791;SDS011;1911;53.768;11.474;2023-05-07T14:05:58;3.80;;;2.30;;
3791;SDS011;1911;53.768;11.474;2023-05-07T14:08:26;3.33;;;2.27;;
3791;SDS011;1911;53.768;11.474;2023-05-07T14:10:52;5.43;;;2.53;;
3791;SDS011;1911;53.768;11.474;2023-05-07T14:13:18;3.20;;;2.20;;
3791;SDS011;1911;53.768;11.474;2023-05-07T14:15:43;4.47;;;3.43;;
3791;SDS011;1911;53.768;11.474;2023-05-07T14:18:14;4.20;;;2.67;;
3791;SDS011;1911;53.768;11.474;2023-05-07T14:20:39;5.10;;;2.67;;
3791;SDS011;1911;53.768;11.474;2023-05-07T14:23:05;3.73;;;2.27;;
3791;SDS011;1911;53.768;11.474;2023-05-07T14:25:31;3.17;;;2.07;;
3791;SDS011;1911;53.768;11.474;2023-05-07T14:27:57;3.60;;;2.23;;
3791;SDS011;1911;53.768;11.474;2023-05-07T14:30:22;3.03;;;2.60;;
3791;SDS011;1911;53.768;11.474;2023-05-07T14:32:49;4.53;;;2.80;;
3791;SDS011;1911;53.768;11.474;2023-05-07T14:35:15;3.60;;;2.67;;
3791;SDS011;1911;53.768;11.474;2023-05-07T14:37:41;3.60;;;3.13;;
3791;SDS011;1911;53.768;11.474;2023-05-07T14:40:07;3.53;;;2.73;;
3791;SDS011;1911;53.768;11.474;2023-05-07T14:42:33;4.60;;;2.90;;
3791;SDS011;1911;53.768;11.474;2023-05-07T14:44:58;3.87;;;3.00;;
3791;SDS011;1911;53.768;11.474;2023-05-07T14:47:24;2.77;;;2.10;;
3791;SDS011;1911;53.768;11.474;2023-05-07T14:49:49;4.03;;;2.80;;
3791;SDS011;1911;53.768;11.474;2023-05-07T14:52:15;4.00;;;1.90;;
3791;SDS011;1911;53.768;11.474;2023-05-07T14:54:41;2.60;;;2.40;;
3791;SDS011;1911;53.768;11.474;2023-05-07T14:57:07;2.87;;;2.17;;
3791;SDS011;1911;53.768;11.474;2023-05-07T14:59:34;3.93;;;1.87;;
3791;SDS011;1911;53.768;11.474;2023-05-07T15:02:00;3.63;;;2.00;;
3791;SDS011;1911;53.768;11.474;2023-05-07T15:04:26;2.63;;;2.13;;
3791;SDS011;1911;53.768;11.474;2023-05-07T15:06:52;3.83;;;2.40;;
3791;SDS011;1911;53.768;11.474;2023-05-07T15:09:18;4.00;;;2.90;;
3791;SDS011;1911;53.768;11.474;2023-05-07T15:11:44;3.53;;;2.00;;
3791;SDS011;1911;53.768;11.474;2023-05-07T15:14:10;3.20;;;2.20;;
3791;SDS011;1911;53.768;11.474;2023-05-07T15:16:35;3.70;;;2.03;;
3791;SDS011;1911;53.768;11.474;2023-05-07T15:19:01;3.60;;;1.93;;
3791;SDS011;1911;53.768;11.474;2023-05-07T15:21:27;2.63;;;2.00;;
3791;SDS011;1911;53.768;11.474;2023-05-07T15:23:52;2.43;;;1.70;;
3791;SDS011;1911;53.768;11.474;2023-05-07T15:26:18;3.80;;;2.40;;
3791;SDS011;1911;53.768;11.474;2023-05-07T15:28:43;4.43;;;2.70;;
3791;SDS011;1911;53.768;11.474;2023-05-07T15:31:10;3.30;;;2.03;;
3791;SDS011;1911;53.768;11.474;2023-05-07T15:33:35;2.60;;;1.97;;
3791;SDS011;1911;53.768;11.474;2023-05-07T15:36:01;4.67;;;2.30;;
3791;SDS011;1911;53.768;11.474;2023-05-07T15:38:28;2.60;;;1.73;;
3791;SDS011;1911;53.768;11.474;2023-05-07T15:40:54;2.60;;;1.90;;